Time;durP1;ratioP1;P1;durP2;ratioP2;P2;SDS_P1;SDS_P2;PMS_P1;PMS_P2;Temp;Humidity;BMP_temperature;BMP_pressure;BME280_temperature;BME280_humidity;BME280_pressure;Samples;Min_cycle;Max_cycle;Signal;HPM_P1;HPM_P2
2022/08/26 00:00:44;;;;;;;10.52;7.53;;;;;;;25.64;36.89;100211.22;10052495;29;21148;-76
2022/08/26 00:06:07;;;;;;;9.85;7.80;;;;;;;25.72;36.39;100212.72;10047565;29;20246;-77
2022/08/26 00:11:29;;;;;;;11.50;7.40;;;;;;;25.39;37.28;100216.66;10026492;29;20238;-76
2022/08/26 00:16:52;;;;;;;10.15;7.93;;;;;;;25.68;36.74;100217.75;10038040;29;20857;-78
2022/08/26 00:22:14;;;;;;;8.77;7.53;;;;;;;25.32;37.68;100214.75;10015923;29;20266;-76
2022/08/26 00:27:36;;;;;;;10.93;7.93;;;;;;;25.56;37.07;100215.53;10002834;29;20295;-76
2022/08/26 00:32:59;;;;;;;11.35;7.55;;;;;;;25.56;37.73;100213.44;10033225;29;20250;-77
2022/08/26 00:38:22;;;;;;;9.40;8.23;;;;;;;25.40;37.25;100218.31;10041859;29;20238;-76
2022/08/26 00:43:44;;;;;;;10.75;7.82;;;;;;;25.31;37.52;100211.03;10037439;29;20258;-77
2022/08/26 00:49:12;;;;;;;12.68;7.63;;;;;;;25.31;37.51;100216.00;10056564;29;20286;-77
2022/08/26 00:54:39;;;;;;;10.55;7.90;;;;;;;25.22;38.06;100212.84;10033545;29;20778;-76
2022/08/26 01:00:06;;;;;;;11.93;8.63;;;;;;;25.34;37.96;100215.13;10029715;29;20816;-81
2022/08/26 01:05:29;;;;;;;10.52;8.18;;;;;;;25.69;37.53;100228.03;10032035;29;20258;-77
2022/08/26 01:10:53;;;;;;;11.95;8.75;;;;;;;25.09;37.04;100224.22;10030526;29;20213;-76
2022/08/26 01:16:15;;;;;;;10.45;7.60;;;;;;;24.39;39.12;100240.53;10052844;29;20544;-77
2022/08/26 01:21:44;;;;;;;8.32;7.53;;;;;;;24.25;39.47;100235.78;10044729;29;20262;-76
2022/08/26 01:27:09;;;;;;;13.13;8.07;;;;;;;24.62;38.29;100237.69;10037423;29;20263;-76
2022/08/26 01:32:31;;;;;;;9.73;7.63;;;;;;;24.65;38.36;100236.84;10034295;29;20282;-76
2022/08/26 01:37:55;;;;;;;8.38;7.45;;;;;;;24.73;38.24;100237.56;10030906;29;20234;-76
2022/08/26 01:43:21;;;;;;;10.93;7.47;;;;;;;25.29;37.89;100245.28;10017247;29;20291;-76
2022/08/26 01:48:44;;;;;;;9.18;7.85;;;;;;;25.21;37.52;100242.94;10009191;29;20261;-76
2022/08/26 01:54:07;;;;;;;13.23;8.80;;;;;;;25.08;37.99;100247.72;10006968;29;20287;-77
2022/08/26 01:59:29;;;;;;;10.68;7.90;;;;;;;25.24;36.55;100245.78;10019928;29;20727;-79
2022/08/26 02:04:58;;;;;;;10.48;7.80;;;;;;;25.25;36.74;100244.53;10024997;29;20250;-76
2022/08/26 02:10:20;;;;;;;9.70;7.30;;;;;;;24.86;37.66;100247.22;10009430;29;20238;-77
2022/08/26 02:15:43;;;;;;;11.32;7.95;;;;;;;25.15;36.83;100248.38;10010025;29;20262;-78
2022/08/26 02:21:06;;;;;;;10.73;7.25;;;;;;;25.32;36.67;100258.03;10022930;29;20251;-85
2022/08/26 02:26:28;;;;;;;8.40;6.75;;;;;;;25.31;35.84;100257.22;10031034;29;20616;-78
2022/08/26 02:31:51;;;;;;;8.45;7.63;;;;;;;24.43;37.31;100267.22;10018176;29;20633;-76
2022/08/26 02:37:14;;;;;;;10.68;6.97;;;;;;;24.99;36.14;100266.38;10057121;29;20307;-78
2022/08/26 02:42:36;;;;;;;8.50;7.50;;;;;;;24.76;36.63;100265.53;10048728;29;20205;-77
2022/08/26 02:47:59;;;;;;;10.10;7.75;;;;;;;24.63;37.21;100268.97;10028790;29;20293;-79
2022/08/26 02:53:21;;;;;;;12.85;8.20;;;;;;;24.54;37.39;100270.75;10031267;29;20242;-77
2022/08/26 02:58:43;;;;;;;12.15;8.45;;;;;;;24.21;38.11;100264.63;10042033;29;20230;-76
2022/08/26 03:04:09;;;;;;;10.07;8.80;;;;;;;24.18;38.67;100277.03;10021082;29;20711;-76
2022/08/26 03:09:32;;;;;;;10.95;9.43;;;;;;;24.11;38.95;100271.31;10026222;29;20238;-77
2022/08/26 03:14:55;;;;;;;12.07;9.85;;;;;;;24.52;37.85;100274.06;10052649;29;20214;-77
2022/08/26 03:20:17;;;;;;;13.13;9.98;;;;;;;25.01;37.27;100266.75;10050980;29;20246;-77
2022/08/26 03:25:39;;;;;;;13.45;9.75;;;;;;;24.51;37.92;100271.63;10037434;29;20573;-76
2022/08/26 03:31:01;;;;;;;15.00;11.55;;;;;;;24.38;39.11;100274.28;10020205;29;20219;-79
2022/08/26 03:36:23;;;;;;;20.02;14.07;;;;;;;24.28;38.93;100276.06;10037492;29;20598;-77
2022/08/26 03:41:46;;;;;;;17.42;14.75;;;;;;;23.89;40.12;100288.03;10028663;29;20279;-77
2022/08/26 03:47:08;;;;;;;25.35;21.58;;;;;;;24.11;40.33;100282.00;10042615;29;20242;-80
2022/08/26 03:52:30;;;;;;;26.15;20.85;;;;;;;23.74;41.08;100280.78;10021892;29;20287;-77
2022/08/26 03:57:53;;;;;;;28.60;25.55;;;;;;;23.38;42.13;100291.00;10036024;29;20301;-78
2022/08/26 04:03:56;;;;;;;31.70;26.45;;;;;;;23.52;42.37;100299.50;10023354;29;20262;-80
2022/08/26 04:08:59;;;;;;;34.50;30.83;;;;;;;23.37;43.15;100300.88;10035208;29;20545;-85
2022/08/26 04:14:22;;;;;;;36.72;32.83;;;;;;;23.40;43.11;100302.91;10039313;29;20286;-79
2022/08/26 04:19:44;;;;;;;35.67;31.80;;;;;;;23.38;43.85;100294.69;10023878;29;20243;-80
2022/08/26 04:25:08;;;;;;;41.92;37.17;;;;;;;23.37;43.43;100300.88;10041474;29;20281;-83
2022/08/26 04:30:31;;;;;;;41.58;37.13;;;;;;;22.59;45.83;100310.06;10058749;29;20283;-81
2022/08/26 04:36:01;;;;;;;43.20;37.92;;;;;;;22.66;45.38;100310.00;10040905;29;20199;-85
2022/08/26 04:41:23;;;;;;;46.95;41.80;;;;;;;22.85;45.58;100303.72;10030195;29;20206;-82
2022/08/26 04:46:45;;;;;;;50.88;45.33;;;;;;;22.80;46.44;100316.47;10036278;29;20277;-82
2022/08/26 04:52:07;;;;;;;55.78;49.83;;;;;;;22.69;46.95;100323.53;10018126;29;20238;-85
2022/08/26 04:57:31;;;;;;;58.10;51.92;;;;;;;23.18;46.21;100320.34;10031215;29;20627;-87
2022/08/26 05:02:53;;;;;;;62.25;54.40;;;;;;;23.04;46.57;100329.03;10034061;29;20695;-90
2022/08/26 05:08:17;;;;;;;63.53;56.60;;;;;;;22.95;47.27;100334.44;10032195;29;20243;-85
2022/08/26 05:13:39;;;;;;;67.40;60.13;;;;;;;23.21;47.98;100333.88;10037857;29;20613;-77
2022/08/26 05:19:03;;;;;;;71.15;63.33;;;;;;;23.19;47.91;100336.34;10036825;29;20206;-90
2022/08/26 05:24:25;;;;;;;78.97;67.05;;;;;;;23.59;47.47;100336.81;10040527;29;20263;-81
2022/08/26 05:29:47;;;;;;;85.10;69.03;;;;;;;22.95;49.17;100343.06;10031575;29;20276;-83
2022/08/26 05:35:11;;;;;;;67.78;59.53;;;;;;;22.11;50.79;100347.97;10044922;29;20302;-89
2022/08/26 05:40:36;;;;;;;85.63;70.35;;;;;;;23.31;48.39;100337.06;10033405;29;20234;-90
2022/08/26 05:46:04;;;;;;;77.63;66.72;;;;;;;23.35;48.01;100355.13;10034331;29;20746;-81
2022/08/26 05:51:26;;;;;;;86.57;69.85;;;;;;;22.94;49.22;100350.06;10037247;29;20226;-88
2022/08/26 05:56:50;;;;;;;76.03;61.05;;;;;;;22.99;47.79;100355.38;10038600;29;20256;-86
2022/08/26 06:02:12;;;;;;;70.35;60.50;;;;;;;23.31;48.42;100355.16;10047414;29;20325;-89
2022/08/26 06:13:18;;;;;;;78.30;64.97;;;;;;;23.18;48.43;100357.72;10046974;29;20605;-82
2022/08/26 06:18:43;;;;;;;79.70;65.57;;;;;;;23.13;49.19;100358.19;10030821;29;20234;-78
2022/08/26 06:29:50;;;;;;;83.15;68.25;;;;;;;23.21;48.49;100362.63;10029828;29;20233;-86
2022/08/26 06:35:12;;;;;;;89.50;68.10;;;;;;;23.48;47.54;100362.00;10049285;29;20229;-78
2022/08/26 06:40:47;;;;;;;81.55;63.15;;;;;;;22.88;50.24;100372.69;10044712;29;20286;-80
2022/08/26 06:46:11;;;;;;;83.75;65.55;;;;;;;24.17;46.21;100366.69;10026372;29;20259;-81
2022/08/26 06:51:36;;;;;;;88.97;69.97;;;;;;;23.94;46.94;100370.22;10023716;29;20290;-80
2022/08/26 06:56:58;;;;;;;77.88;60.97;;;;;;;23.23;48.50;100377.41;10041119;29;20247;-80
2022/08/26 07:02:20;;;;;;;69.53;58.40;;;;;;;23.79;47.66;100383.97;10028455;29;20271;-80
2022/08/26 07:07:43;;;;;;;72.32;58.35;;;;;;;24.11;46.23;100379.91;10040521;29;20250;-81
2022/08/26 07:13:05;;;;;;;61.25;49.25;;;;;;;22.88;48.24;100394.84;10020835;29;20257;-84
2022/08/26 07:18:28;;;;;;;60.58;48.63;;;;;;;23.00;48.04;100399.31;10023720;29;20226;-79
2022/08/26 07:23:51;;;;;;;63.95;52.53;;;;;;;23.89;46.26;100391.66;10034722;29;20279;-81
2022/08/26 07:29:13;;;;;;;71.22;57.83;;;;;;;24.55;44.61;100382.72;10029539;29;20646;-82
2022/08/26 07:34:37;;;;;;;64.32;52.53;;;;;;;23.78;45.99;100390.94;10036845;29;20238;-80
2022/08/26 07:39:59;;;;;;;65.53;53.25;;;;;;;23.03;48.52;100407.88;10020439;29;20270;-83
2022/08/26 07:45:21;;;;;;;73.28;55.90;;;;;;;23.74;46.95;100400.84;10003657;29;20254;-81
2022/08/26 07:50:44;;;;;;;74.75;56.85;;;;;;;24.34;45.46;100411.78;10014954;29;20230;-80
2022/08/26 07:56:07;;;;;;;66.97;53.85;;;;;;;24.08;45.97;100403.81;10027784;29;20239;-80
2022/08/26 08:01:30;;;;;;;64.80;50.47;;;;;;;22.90;47.94;100426.84;10004994;29;20637;-86
2022/08/26 08:06:52;;;;;;;61.08;51.58;;;;;;;24.47;44.72;100415.72;10012693;29;20272;-86
2022/08/26 08:12:16;;;;;;;62.80;52.20;;;;;;;24.14;45.56;100428.03;10029521;29;20340;-80
2022/08/26 08:17:42;;;;;;;66.63;51.53;;;;;;;24.66;44.64;100420.88;10007787;29;20302;-81
2022/08/26 08:23:05;;;;;;;62.67;51.20;;;;;;;23.63;47.01;100435.44;10026154;29;20274;-80
2022/08/26 08:28:27;;;;;;;63.50;50.47;;;;;;;24.18;44.54;100431.69;10025753;29;20238;-81
2022/08/26 08:33:49;;;;;;;61.05;48.25;;;;;;;24.67;43.84;100433.22;10014772;29;20255;-81
2022/08/26 08:39:12;;;;;;;55.45;47.67;;;;;;;24.00;45.43;100433.91;10013138;29;20235;-81
2022/08/26 08:44:37;;;;;;;60.00;49.15;;;;;;;23.56;46.07;100441.25;10012771;29;20262;-81
2022/08/26 08:50:06;;;;;;;64.18;52.03;;;;;;;24.51;44.31;100430.94;10026018;29;20301;-82
2022/08/26 08:55:39;;;;;;;57.28;49.38;;;;;;;23.01;47.97;100442.00;10039394;29;20539;-79
2022/08/26 09:01:03;;;;;;;53.85;44.70;;;;;;;23.70;47.04;100434.59;10032883;29;20675;-80
2022/08/26 09:06:25;;;;;;;51.40;45.85;;;;;;;24.40;45.14;100430.25;10008398;29;20250;-79
2022/08/26 09:11:48;;;;;;;51.08;44.40;;;;;;;24.10;45.48;100433.81;10007524;29;20238;-78
2022/08/26 09:17:30;;;;;;;47.28;41.72;;;;;;;24.44;45.19;100433.09;10020430;29;20298;-81
2022/08/26 09:22:52;;;;;;;46.75;41.65;;;;;;;23.66;45.74;100445.34;10027091;29;20238;-79
2022/08/26 09:28:20;;;;;;;53.05;45.03;;;;;;;23.15;47.24;100439.09;10028547;29;20317;-80
2022/08/26 09:33:43;;;;;;;43.78;38.42;;;;;;;23.29;47.14;100435.28;10018683;29;20215;-80
2022/08/26 09:39:26;;;;;;;38.72;34.58;;;;;;;24.05;45.37;100437.16;10043222;29;20257;-79
2022/08/26 09:45:02;;;;;;;46.10;37.30;;;;;;;24.23;45.00;100442.75;10034371;29;20270;-83
2022/08/26 09:50:27;;;;;;;46.67;40.95;;;;;;;24.23;44.45;100445.63;10015587;29;20752;-80
2022/08/26 09:55:51;;;;;;;50.03;44.72;;;;;;;25.26;42.25;100445.22;10044151;29;20259;-80
2022/08/26 10:01:23;;;;;;;49.70;42.05;;;;;;;24.92;42.33;100435.78;10036488;29;20333;-81
2022/08/26 10:07:03;;;;;;;40.85;36.55;;;;;;;23.29;46.59;100443.91;10031358;29;20318;-81
2022/08/26 10:12:26;;;;;;;40.50;36.13;;;;;;;24.82;43.49;100436.75;10026173;29;20230;-81
2022/08/26 10:17:54;;;;;;;50.20;44.30;;;;;;;25.17;42.18;100423.91;10036732;29;20596;-83
2022/08/26 10:23:18;;;;;;;34.75;30.80;;;;;;;24.96;42.12;100420.09;10023902;29;20263;-79
2022/08/26 10:29:11;;;;;;;35.67;30.70;;;;;;;25.18;41.59;100426.38;10021533;29;20303;-80
2022/08/26 10:34:33;;;;;;;33.05;29.58;;;;;;;24.03;43.62;100421.56;10010440;29;20242;-80
2022/08/26 10:40:10;;;;;;;33.67;26.65;;;;;;;24.93;42.45;100417.25;9997987;29;20226;-81
2022/08/26 10:45:37;;;;;;;32.88;23.65;;;;;;;25.44;41.65;100403.75;10015746;29;20250;-80
2022/08/26 10:51:01;;;;;;;28.10;24.58;;;;;;;25.21;41.79;100419.72;10031609;29;20229;-86
2022/08/26 10:56:47;;;;;;;27.27;22.42;;;;;;;24.20;43.39;100412.75;10038676;29;20230;-81
2022/08/26 11:02:37;;;;;;;24.10;21.35;;;;;;;25.54;42.02;100414.28;10040013;29;20393;-84
2022/08/26 11:08:28;;;;;;;27.08;23.73;;;;;;;24.94;41.94;100410.25;10009138;29;20261;-79
2022/08/26 11:13:59;;;;;;;25.92;23.30;;;;;;;25.54;41.29;100414.28;10008722;29;20235;-81
2022/08/26 11:19:30;;;;;;;26.35;22.50;;;;;;;24.66;43.18;100415.09;10009333;29;20300;-81
2022/08/26 11:24:52;;;;;;;23.00;20.60;;;;;;;25.52;41.09;100408.13;10024664;29;20318;-80
2022/08/26 11:30:14;;;;;;;19.77;14.60;;;;;;;25.37;41.58;100416.19;10007089;29;20295;-80
2022/08/26 11:35:37;;;;;;;15.98;12.90;;;;;;;25.63;41.23;100403.81;10029147;29;20616;-82
2022/08/26 11:41:13;;;;;;;18.40;12.98;;;;;;;25.23;42.56;100411.47;10008799;29;20238;-82
2022/08/26 11:46:36;;;;;;;21.63;16.98;;;;;;;24.98;42.98;100410.97;10008991;29;20246;-81
2022/08/26 11:52:07;;;;;;;20.65;16.70;;;;;;;25.40;41.71;100406.69;10016282;29;20250;-80
2022/08/26 11:57:32;;;;;;;20.48;16.38;;;;;;;25.40;41.91;100403.78;10020566;29;20231;-80
2022/08/26 12:02:57;;;;;;;20.73;16.35;;;;;;;25.45;41.38;100411.16;10014044;29;20613;-80
2022/08/26 12:08:25;;;;;;;18.63;16.27;;;;;;;24.87;42.46;100410.31;9997778;29;20319;-80
2022/08/26 12:14:02;;;;;;;22.50;16.08;;;;;;;25.35;42.30;100405.13;10000359;29;20516;-80
2022/08/26 12:19:30;;;;;;;19.75;16.10;;;;;;;24.88;42.05;100404.13;10022223;29;20294;-81
2022/08/26 12:24:57;;;;;;;22.35;16.77;;;;;;;25.17;42.67;100395.88;10007739;29;20314;-80
2022/08/26 12:30:22;;;;;;;19.77;15.88;;;;;;;25.34;40.98;100394.00;10021993;29;20271;-80
2022/08/26 12:35:44;;;;;;;18.30;14.45;;;;;;;25.83;40.43;100388.66;10015379;29;20518;-81
2022/08/26 12:41:07;;;;;;;18.67;16.25;;;;;;;25.11;41.49;100391.84;10027824;29;20246;-80
2022/08/26 12:46:29;;;;;;;20.67;14.82;;;;;;;25.53;40.59;100384.59;10025940;29;20284;-80
2022/08/26 12:51:51;;;;;;;20.40;15.43;;;;;;;25.15;41.48;100386.84;10012788;29;20226;-80
2022/08/26 12:57:13;;;;;;;19.35;15.73;;;;;;;25.25;41.69;100391.66;10023948;29;20230;-81
2022/08/26 13:02:37;;;;;;;21.20;14.98;;;;;;;25.38;41.37;100388.16;10027025;29;20319;-81
2022/08/26 13:08:16;;;;;;;16.80;12.60;;;;;;;25.05;41.40;100384.94;10029495;29;20315;-82
2022/08/26 13:13:39;;;;;;;13.02;11.65;;;;;;;24.31;43.16;100380.97;10031475;29;20231;-85
2022/08/26 13:19:07;;;;;;;14.32;10.77;;;;;;;25.46;41.08;100373.19;10023628;29;20264;-80
2022/08/26 13:24:35;;;;;;;15.95;10.70;;;;;;;24.29;43.55;100375.63;10028580;29;20287;-80
2022/08/26 13:29:58;;;;;;;15.85;10.07;;;;;;;24.46;43.41;100370.88;10019925;29;20242;-80
2022/08/26 13:35:20;;;;;;;18.52;9.38;;;;;;;25.69;40.56;100372.38;10017686;29;20652;-79
2022/08/26 13:40:43;;;;;;;13.50;8.45;;;;;;;24.46;42.82;100379.53;10009764;29;20243;-81
2022/08/26 13:46:05;;;;;;;15.23;8.60;;;;;;;24.40;43.21;100381.25;10009254;29;20259;-80
2022/08/26 13:51:28;;;;;;;13.82;7.95;;;;;;;24.35;43.91;100381.72;10022696;29;20382;-81
2022/08/26 13:56:50;;;;;;;11.45;7.10;;;;;;;23.88;44.43;100371.94;10016985;29;20303;-82
2022/08/26 14:02:12;;;;;;;14.02;7.05;;;;;;;24.62;42.82;100371.09;10021753;29;20270;-84
2022/08/26 14:07:35;;;;;;;16.77;6.75;;;;;;;25.38;41.44;100357.25;10028509;29;20255;-80
2022/08/26 14:12:57;;;;;;;15.10;7.05;;;;;;;25.72;40.93;100363.66;10024672;29;20242;-81
2022/08/26 14:18:28;;;;;;;10.80;6.10;;;;;;;24.63;43.22;100378.47;10023172;29;20319;-80
2022/08/26 14:23:51;;;;;;;14.25;6.00;;;;;;;24.17;43.77;100366.69;10015558;29;20576;-80
2022/08/26 14:29:13;;;;;;;10.68;5.97;;;;;;;25.06;41.93;100380.81;10016656;29;20238;-81
2022/08/26 14:34:39;;;;;;;8.88;5.65;;;;;;;25.72;40.42;100374.41;10007117;29;20768;-80
2022/08/26 14:40:01;;;;;;;12.90;5.97;;;;;;;25.04;42.23;100380.44;10012680;29;20219;-80
2022/08/26 14:45:24;;;;;;;11.75;6.03;;;;;;;23.82;44.42;100385.13;10027649;29;20652;-82
2022/08/26 14:50:39;;;;;;;11.32;6.60;;;;;;;24.51;42.22;100381.13;10028653;29;20294;-82
2022/08/26 14:56:01;;;;;;;11.27;5.90;;;;;;;24.57;42.36;100380.22;9999482;29;20246;-83
2022/08/26 15:01:23;;;;;;;12.60;6.45;;;;;;;24.21;42.28;100379.00;10019718;29;20274;-82
2022/08/26 15:06:46;;;;;;;12.10;6.15;;;;;;;25.17;40.79;100369.09;10014996;29;20254;-82
2022/08/26 15:12:09;;;;;;;9.93;6.90;;;;;;;24.98;41.58;100364.84;10017070;29;20293;-82
2022/08/26 15:17:31;;;;;;;11.02;6.90;;;;;;;24.91;40.91;100354.25;10025375;29;20238;-82
2022/08/26 15:22:53;;;;;;;9.85;6.45;;;;;;;24.57;41.53;100362.94;10020189;29;20684;-81
2022/08/26 15:28:15;;;;;;;8.55;5.35;;;;;;;24.58;41.72;100364.56;10020747;29;20255;-81
2022/08/26 15:33:39;;;;;;;9.07;5.22;;;;;;;24.84;40.86;100368.78;10015105;29;20316;-81
2022/08/26 15:39:03;;;;;;;11.32;4.28;;;;;;;25.36;40.22;100351.13;10021611;29;20612;-81
2022/08/26 15:44:26;;;;;;;9.27;4.32;;;;;;;24.19;42.67;100346.97;10025067;29;20231;-80
2022/08/26 15:49:48;;;;;;;9.20;3.78;;;;;;;24.85;41.92;100355.97;10001721;29;20299;-81
2022/08/26 15:55:11;;;;;;;7.70;3.90;;;;;;;23.31;45.13;100348.56;10023915;29;20642;-82
2022/08/26 16:00:33;;;;;;;9.32;4.10;;;;;;;24.49;41.88;100349.84;10049660;29;20265;-81
2022/08/26 16:05:55;;;;;;;10.32;4.05;;;;;;;22.50;47.09;100373.69;10035829;29;20341;-79
2022/08/26 16:11:18;;;;;;;9.25;3.50;;;;;;;23.13;45.08;100372.56;10029850;29;20237;-80
2022/08/26 16:16:40;;;;;;;9.00;3.63;;;;;;;23.82;43.68;100362.13;10044926;29;20233;-80
2022/08/26 16:22:05;;;;;;;10.30;3.95;;;;;;;23.77;44.34;100372.06;10004996;29;20275;-80
2022/08/26 16:27:28;;;;;;;6.78;2.85;;;;;;;24.99;41.67;100372.25;10002126;29;20656;-81
2022/08/26 16:32:50;;;;;;;9.00;3.70;;;;;;;23.31;45.00;100377.34;9992542;29;20271;-85
2022/08/26 16:38:12;;;;;;;6.20;4.20;;;;;;;24.40;42.95;100375.50;10014064;29;20230;-80
2022/08/26 16:43:35;;;;;;;9.30;4.18;;;;;;;24.95;40.94;100383.84;10023461;29;20357;-82
2022/08/26 16:48:57;;;;;;;8.75;4.07;;;;;;;24.32;42.70;100394.13;10003937;29;20255;-82
2022/08/26 16:54:20;;;;;;;8.05;3.55;;;;;;;24.13;43.30;100389.75;10013860;29;20293;-82
2022/08/26 16:59:42;;;;;;;7.72;3.63;;;;;;;23.48;44.61;100408.03;10033721;29;20266;-84
2022/08/26 17:05:07;;;;;;;10.65;3.67;;;;;;;23.93;43.27;100409.72;10009899;29;20297;-82
2022/08/26 17:10:31;;;;;;;7.80;3.55;;;;;;;24.36;42.93;100409.28;9996468;29;20230;-80
2022/08/26 17:15:52;;;;;;;10.38;3.72;;;;;;;24.20;42.54;100412.75;10001782;29;20235;-80
2022/08/26 17:21:14;;;;;;;7.18;3.35;;;;;;;24.73;41.88;100424.91;10020137;29;20235;-79
2022/08/26 17:26:37;;;;;;;5.47;2.63;;;;;;;24.63;41.84;100430.38;10024294;29;20284;-82
2022/08/26 17:31:59;;;;;;;5.95;2.95;;;;;;;24.46;42.21;100422.75;10010126;29;20597;-81
2022/08/26 17:37:21;;;;;;;6.30;3.03;;;;;;;24.26;42.28;100427.50;10007180;29;20244;-79
2022/08/26 17:42:44;;;;;;;6.97;3.00;;;;;;;24.46;41.92;100428.50;10004717;29;20299;-79
2022/08/26 17:48:06;;;;;;;6.00;2.83;;;;;;;24.70;41.27;100411.38;10012579;29;20274;-80
2022/08/26 17:53:32;;;;;;;8.25;3.17;;;;;;;24.45;41.85;100409.63;10005922;29;20239;-80
2022/08/26 17:58:57;;;;;;;7.90;2.75;;;;;;;23.56;43.60;100423.97;10007040;29;20291;-79
2022/08/26 18:04:19;;;;;;;6.05;2.50;;;;;;;24.83;40.70;100423.97;10003597;29;20318;-86
2022/08/26 18:09:42;;;;;;;6.72;2.67;;;;;;;24.40;41.63;100421.59;9982973;29;20800;-86
2022/08/26 18:15:04;;;;;;;5.53;3.17;;;;;;;24.36;41.91;100415.03;10016610;29;20288;-80
2022/08/26 18:20:27;;;;;;;8.18;2.88;;;;;;;24.46;41.74;100424.84;10023254;29;20265;-86
2022/08/26 18:25:49;;;;;;;4.53;2.65;;;;;;;23.76;43.06;100425.09;10004972;29;20311;-83
2022/08/26 18:31:12;;;;;;;5.50;2.45;;;;;;;24.72;41.15;100415.44;10026450;29;20203;-84
2022/08/26 18:36:35;;;;;;;4.07;2.10;;;;;;;23.73;42.96;100417.31;10026406;29;20233;-85
2022/08/26 18:41:57;;;;;;;5.15;2.33;;;;;;;24.21;42.00;100408.63;10011523;29;20211;-84
2022/08/26 18:47:20;;;;;;;6.63;2.60;;;;;;;24.65;41.04;100413.47;10020504;29;20280;-83
2022/08/26 18:52:42;;;;;;;5.25;2.13;;;;;;;23.59;43.21;100423.16;10029511;29;20198;-87
2022/08/26 18:58:04;;;;;;;8.43;2.55;;;;;;;24.67;41.01;100422.50;10022971;29;20203;-86
2022/08/26 19:03:27;;;;;;;5.85;2.25;;;;;;;24.74;40.22;100424.50;10016095;29;20195;-85
2022/08/26 19:08:49;;;;;;;8.98;2.28;;;;;;;24.48;40.96;100434.66;10026142;29;20652;-88
2022/08/26 19:14:13;;;;;;;6.47;2.30;;;;;;;23.16;43.88;100440.69;10025863;29;20196;-84
2022/08/26 19:19:36;;;;;;;6.13;2.28;;;;;;;22.93;44.10;100451.88;10014449;29;20230;-79
2022/08/26 19:24:58;;;;;;;6.63;1.98;;;;;;;24.12;41.75;100447.78;10013892;29;20243;-82
2022/08/26 19:30:20;;;;;;;7.32;1.85;;;;;;;23.19;42.99;100439.03;10001688;29;20250;-82
2022/08/26 19:35:42;;;;;;;3.70;1.40;;;;;;;22.55;44.43;100445.06;10005183;29;20616;-82
2022/08/26 19:41:05;;;;;;;4.75;1.85;;;;;;;23.19;42.82;100448.50;10005951;29;20199;-86
2022/08/26 19:46:28;;;;;;;4.32;1.27;;;;;;;23.32;42.82;100453.75;10002354;29;20629;-84
2022/08/26 19:51:37;;;;;;;3.95;1.10;;;;;;;23.18;43.67;100455.47;9990200;29;20207;-87
2022/08/26 19:57:00;;;;;;;4.80;1.40;;;;;;;23.16;43.88;100452.19;9997267;29;20228;-82
2022/08/26 20:02:22;;;;;;;1.85;1.25;;;;;;;22.63;44.77;100457.38;10017363;29;20536;-86
2022/08/26 20:07:45;;;;;;;3.72;1.50;;;;;;;22.65;45.44;100463.50;10040357;29;20230;-85
2022/08/26 20:13:07;;;;;;;3.53;1.60;;;;;;;23.27;43.05;100463.66;10046288;29;20243;-83
2022/08/26 20:24:15;;;;;;;6.05;1.67;;;;;;;23.22;43.40;100462.03;10020549;29;20569;-87
2022/08/26 20:29:38;;;;;;;5.72;1.67;;;;;;;23.28;42.95;100467.34;10029397;29;20265;-84
2022/08/26 20:35:00;;;;;;;8.63;2.28;;;;;;;22.45;45.62;100471.75;10023387;29;20311;-78
2022/08/26 20:40:23;;;;;;;6.45;1.60;;;;;;;23.45;43.29;100484.50;10031130;29;20265;-80
2022/08/26 20:45:45;;;;;;;7.28;1.90;;;;;;;23.67;42.35;100482.31;10028333;29;20235;-87
2022/08/26 20:51:07;;;;;;;7.75;1.63;;;;;;;23.42;43.00;100490.28;10037885;29;20299;-86
2022/08/26 20:56:29;;;;;;;4.35;1.70;;;;;;;24.00;41.55;100482.88;10046900;29;20618;-87
2022/08/26 21:01:52;;;;;;;5.03;2.70;;;;;;;23.11;43.49;100487.16;10053072;29;20242;-88
2022/08/26 21:07:14;;;;;;;5.53;2.63;;;;;;;23.25;43.30;100478.47;10060425;29;20250;-85
2022/08/26 21:12:36;;;;;;;9.40;2.67;;;;;;;23.09;43.45;100488.78;10061830;29;20230;-85
2022/08/26 21:17:58;;;;;;;6.03;2.67;;;;;;;23.34;42.75;100498.13;10047644;29;20263;-85
2022/08/26 21:23:21;;;;;;;7.22;2.28;;;;;;;23.35;43.02;100510.44;10022535;29;20624;-87
2022/08/26 21:28:45;;;;;;;11.10;2.20;;;;;;;22.66;45.10;100503.31;10023556;29;20261;-86
2022/08/26 21:34:07;;;;;;;3.95;2.28;;;;;;;23.01;43.46;100508.13;10034606;29;20346;-86
2022/08/26 21:39:29;;;;;;;3.60;1.73;;;;;;;22.57;44.92;100516.47;10047402;29;20198;-85
2022/08/26 21:44:52;;;;;;;4.57;1.88;;;;;;;22.90;43.90;100519.66;10049404;29;20216;-85
2022/08/26 21:50:14;;;;;;;3.70;2.42;;;;;;;23.26;43.31;100525.28;10039667;29;20703;-81
2022/08/26 21:55:37;;;;;;;5.30;2.20;;;;;;;22.55;44.56;100526.31;10030975;29;20239;-87
2022/08/26 22:00:59;;;;;;;5.70;2.20;;;;;;;22.79;44.40;100529.53;10055386;29;20265;-87
2022/08/26 22:06:24;;;;;;;4.53;2.47;;;;;;;23.11;43.93;100524.53;10028104;29;20677;-86
2022/08/26 22:11:46;;;;;;;4.40;2.40;;;;;;;22.13;47.05;100520.59;9992132;29;20478;-87
2022/08/26 22:17:08;;;;;;;6.25;2.85;;;;;;;22.41;46.58;100520.56;10007793;29;20466;-81
2022/08/26 22:22:31;;;;;;;4.32;2.70;;;;;;;22.77;46.40;100514.78;10008351;29;20264;-85
2022/08/26 22:27:53;;;;;;;4.03;2.60;;;;;;;21.89;48.25;100521.38;10016046;29;20242;-88
2022/08/26 22:33:15;;;;;;;5.47;2.95;;;;;;;22.23;47.54;100516.09;10038683;29;20221;-88
2022/08/26 22:38:37;;;;;;;5.65;2.60;;;;;;;22.80;47.00;100526.25;10020928;29;20585;-89
2022/08/26 22:44:01;;;;;;;3.20;2.47;;;;;;;21.74;49.52;100514.81;10020866;29;20269;-88
2022/08/26 22:49:23;;;;;;;5.78;2.80;;;;;;;21.00;51.85;100524.84;10020962;29;20259;-88
2022/08/26 22:54:45;;;;;;;3.80;2.90;;;;;;;21.10;51.71;100524.06;10004482;29;20211;-87
2022/08/26 23:00:10;;;;;;;3.63;2.88;;;;;;;22.13;49.19;100514.84;10020313;29;20668;-87
2022/08/26 23:05:33;;;;;;;3.42;2.83;;;;;;;21.29;51.01;100522.09;10049226;29;20223;-89
2022/08/26 23:10:55;;;;;;;3.50;3.20;;;;;;;21.96;49.22;100515.66;10055404;29;20262;-81
2022/08/26 23:16:18;;;;;;;4.32;3.10;;;;;;;21.59;50.03;100513.19;10057385;29;20584;-86
2022/08/26 23:21:40;;;;;;;3.00;2.05;;;;;;;21.84;48.94;100523.47;10058364;29;20259;-84
2022/08/26 23:27:03;;;;;;;2.92;2.50;;;;;;;20.85;51.44;100520.25;10044098;29;20243;-87
2022/08/26 23:32:25;;;;;;;2.78;2.55;;;;;;;21.92;48.30;100514.84;10042735;29;20513;-87
2022/08/26 23:37:52;;;;;;;3.40;1.98;;;;;;;22.20;47.20;100509.94;10018318;29;20235;-84
2022/08/26 23:43:15;;;;;;;2.58;2.00;;;;;;;21.80;48.27;100514.03;10046795;29;20206;-83
2022/08/26 23:48:37;;;;;;;4.07;2.53;;;;;;;21.71;48.53;100515.66;10038086;29;20573;-89
2022/08/26 23:53:59;;;;;;;4.80;2.15;;;;;;;21.76;48.66;100507.44;10044826;29;20206;-87
2022/08/26 23:59:21;;;;;;;5.05;2.38;;;;;;;22.51;46.38;100502.50;10027391;29;20321;-86
